createdAt,value
2017-11-06T00:00:55.154Z,97657.17
2017-11-06T00:03:23.229Z,97666.17
2017-11-06T00:05:52.339Z,97659.92
2017-11-06T00:08:19.870Z,97671.36
2017-11-06T00:10:47.424Z,97674.34
2017-11-06T00:13:15.036Z,97670.45
2017-11-06T00:15:42.766Z,97674.03
2017-11-06T00:18:11.121Z,97678.84
2017-11-06T00:20:38.750Z,97678.67
2017-11-06T00:23:06.594Z,97668.58
2017-11-06T00:25:34.356Z,97668.06
2017-11-06T00:28:01.908Z,97672.60
2017-11-06T00:30:29.752Z,97678.52
2017-11-06T00:32:57.789Z,97679.05
2017-11-06T00:35:25.289Z,97681.58
2017-11-06T00:37:52.917Z,97689.86
2017-11-06T00:42:54.633Z,97705.48
2017-11-06T00:45:22.386Z,97707.26
2017-11-06T00:47:49.914Z,97709.77
2017-11-06T00:50:17.519Z,97715.68
2017-11-06T00:52:45.185Z,97720.36
2017-11-06T00:55:12.820Z,97714.59
2017-11-06T00:57:40.374Z,97714.86
2017-11-06T01:00:07.989Z,97714.08
2017-11-06T01:02:35.983Z,97720.66
2017-11-06T01:05:03.602Z,97724.11
2017-11-06T01:07:31.179Z,97725.95
2017-11-06T01:09:58.714Z,97732.52
2017-11-06T01:12:26.364Z,97729.70
2017-11-06T01:14:54.057Z,97731.89
2017-11-06T01:17:21.984Z,97683.13
2017-11-06T01:19:49.594Z,97733.81
2017-11-06T01:22:18.141Z,97735.16
2017-11-06T01:24:46.340Z,97743.86
2017-11-06T01:27:14.485Z,97753.42
2017-11-06T01:29:42.015Z,97756.48
2017-11-06T01:32:09.797Z,97753.42
2017-11-06T01:34:38.704Z,97751.72
2017-11-06T01:37:06.600Z,97740.38
2017-11-06T01:39:34.353Z,97744.66
2017-11-06T01:42:01.928Z,97743.22
2017-11-06T01:44:29.551Z,97741.19
2017-11-06T01:46:57.498Z,97748.95
2017-11-06T01:49:26.873Z,97750.19
2017-11-06T01:51:54.804Z,97738.20
2017-11-06T01:54:22.488Z,97755.64
2017-11-06T01:56:58.895Z,97758.98
2017-11-06T01:59:26.744Z,97755.03
2017-11-06T02:01:54.417Z,97762.77
2017-11-06T02:04:22.044Z,97769.72
2017-11-06T02:06:49.836Z,97761.83
2017-11-06T02:09:17.386Z,97753.73
2017-11-06T02:11:44.971Z,97763.86
2017-11-06T02:14:12.671Z,97761.00
2017-11-06T02:16:40.252Z,97760.59
2017-11-06T02:19:07.860Z,97770.94
2017-11-06T02:21:35.396Z,97776.94
2017-11-06T02:24:02.984Z,97783.52
2017-11-06T02:26:30.578Z,97778.13
2017-11-06T02:28:58.270Z,97778.17
2017-11-06T02:31:26.865Z,97772.11
2017-11-06T02:33:54.447Z,97778.58
2017-11-06T02:36:21.996Z,97780.00
2017-11-06T02:38:49.506Z,97776.41
2017-11-06T02:41:17.066Z,97783.86
2017-11-06T02:43:44.589Z,97776.52
2017-11-06T02:46:12.164Z,97778.91
2017-11-06T02:48:40.641Z,97783.40
2017-11-06T02:51:08.258Z,97785.13
2017-11-06T02:53:35.892Z,97790.20
2017-11-06T02:56:04.260Z,97796.50
2017-11-06T02:58:31.838Z,97794.62
2017-11-06T03:00:59.590Z,97799.84
2017-11-06T03:03:27.163Z,97801.17
2017-11-06T03:05:55.084Z,97805.20
2017-11-06T03:08:22.784Z,97807.02
2017-11-06T03:10:50.405Z,97812.18
2017-11-06T03:13:18.055Z,97810.09
2017-11-06T03:15:45.611Z,97816.49
2017-11-06T03:18:13.176Z,97820.79
2017-11-06T03:20:40.704Z,97814.28
2017-11-06T03:23:08.295Z,97811.59
2017-11-06T03:25:36.098Z,97802.16
2017-11-06T03:28:04.300Z,97808.65
2017-11-06T03:30:32.103Z,97814.56
2017-11-06T03:32:59.711Z,97823.95
2017-11-06T03:35:27.291Z,97826.55
2017-11-06T03:37:54.826Z,97825.37
2017-11-06T03:40:22.445Z,97831.08
2017-11-06T03:42:50.131Z,97832.98
2017-11-06T03:45:17.684Z,97840.60
2017-11-06T03:47:45.240Z,97840.81
2017-11-06T03:50:13.114Z,97846.53
2017-11-06T03:52:40.790Z,97844.66
2017-11-06T03:55:08.427Z,97851.09
2017-11-06T03:57:36.097Z,97843.87
2017-11-06T04:00:04.162Z,97844.61
2017-11-06T04:02:31.857Z,97849.84
2017-11-06T04:05:00.317Z,97841.48
2017-11-06T04:07:27.954Z,97854.18
2017-11-06T04:09:55.548Z,97852.83
2017-11-06T04:12:23.189Z,97849.57
2017-11-06T04:14:50.850Z,97843.73
2017-11-06T04:17:18.688Z,97851.11
2017-11-06T04:19:46.505Z,97856.77
2017-11-06T04:22:14.252Z,97871.05
2017-11-06T04:24:41.942Z,97863.69
2017-11-06T04:27:09.660Z,97867.17
2017-11-06T04:29:40.982Z,97866.48
2017-11-06T04:32:10.199Z,97868.48
2017-11-06T04:34:38.560Z,97869.03
2017-11-06T04:37:07.381Z,97867.53
2017-11-06T04:39:35.177Z,97876.14
2017-11-06T04:42:02.913Z,97870.78
2017-11-06T04:44:30.915Z,97871.98
2017-11-06T04:46:58.704Z,97871.07
2017-11-06T04:49:26.305Z,97881.73
2017-11-06T04:51:54.120Z,97882.34
2017-11-06T04:54:21.909Z,97878.30
2017-11-06T04:56:49.456Z,97880.69
2017-11-06T04:59:17.002Z,97885.84
2017-11-06T05:01:44.575Z,97888.03
2017-11-06T05:04:12.853Z,97895.50
2017-11-06T05:06:40.521Z,97895.94
2017-11-06T05:09:08.089Z,97893.49
2017-11-06T05:11:35.673Z,97814.39
2017-11-06T05:14:03.233Z,97895.17
2017-11-06T05:16:30.835Z,97894.10
2017-11-06T05:18:58.513Z,97895.50
2017-11-06T05:21:26.467Z,97902.39
2017-11-06T05:23:53.990Z,97909.30
2017-11-06T05:26:21.651Z,97894.59
2017-11-06T05:28:49.234Z,97903.50
2017-11-06T05:31:17.022Z,97905.05
2017-11-06T05:33:44.573Z,97912.37
2017-11-06T05:36:12.215Z,97914.66
2017-11-06T05:38:39.857Z,97919.88
2017-11-06T05:41:08.438Z,97923.23
2017-11-06T05:43:36.226Z,97923.89
2017-11-06T05:46:03.915Z,97930.83
2017-11-06T05:48:31.609Z,97928.58
2017-11-06T05:50:59.186Z,97929.95
2017-11-06T05:56:00.673Z,97929.77
2017-11-06T05:58:28.205Z,97929.83
2017-11-06T06:00:55.779Z,97929.28
2017-11-06T06:03:23.336Z,97927.58
2017-11-06T06:05:50.899Z,97936.23
2017-11-06T06:08:18.453Z,97934.65
2017-11-06T06:10:45.992Z,97948.44
2017-11-06T06:13:13.646Z,97951.34
2017-11-06T06:15:41.145Z,97953.58
2017-11-06T06:18:09.124Z,97954.08
2017-11-06T06:20:36.709Z,97956.56
2017-11-06T06:23:04.228Z,97972.63
2017-11-06T06:25:31.729Z,97968.89
2017-11-06T06:28:03.065Z,97970.83
2017-11-06T06:30:30.570Z,97966.69
2017-11-06T06:32:58.118Z,97966.33
2017-11-06T06:35:25.675Z,97974.52
2017-11-06T06:37:53.195Z,97975.62
2017-11-06T06:40:20.732Z,97970.11
2017-11-06T06:42:48.274Z,97985.28
2017-11-06T06:45:15.873Z,97984.56
2017-11-06T06:47:43.462Z,97981.66
2017-11-06T06:50:11.630Z,97988.07
2017-11-06T06:52:39.281Z,97992.19
2017-11-06T06:55:07.053Z,97990.86
2017-11-06T06:57:35.735Z,97996.88
2017-11-06T07:00:04.156Z,97999.19
2017-11-06T07:02:32.216Z,98002.20
2017-11-06T07:04:59.854Z,98000.53
2017-11-06T07:07:27.605Z,98001.25
2017-11-06T07:09:55.504Z,98003.23
2017-11-06T07:12:23.103Z,98005.29
2017-11-06T07:14:50.740Z,98012.58
2017-11-06T07:17:18.397Z,98019.01
2017-11-06T07:19:46.036Z,98022.64
2017-11-06T07:22:13.633Z,98019.03
2017-11-06T07:24:41.186Z,98018.39
2017-11-06T07:27:08.765Z,98025.28
2017-11-06T07:29:36.281Z,98025.73
2017-11-06T07:32:04.698Z,98025.69
2017-11-06T07:34:32.254Z,98030.84
2017-11-06T07:36:59.776Z,98038.02
2017-11-06T07:39:27.392Z,98041.22
2017-11-06T07:41:55.028Z,98043.64
2017-11-06T07:50:23.065Z,98050.32
2017-11-06T07:52:50.906Z,98059.77
2017-11-06T07:55:19.059Z,98064.36
2017-11-06T07:57:46.677Z,98073.59
2017-11-06T08:00:14.276Z,98074.70
2017-11-06T08:02:41.833Z,98077.38
2017-11-06T08:05:09.366Z,98078.58
2017-11-06T08:07:36.942Z,98087.49
2017-11-06T08:10:04.505Z,98093.38
2017-11-06T08:12:32.061Z,98100.22
2017-11-06T08:14:59.622Z,98104.87
2017-11-06T08:17:27.272Z,98114.42
2017-11-06T08:19:55.209Z,98117.95
2017-11-06T08:22:22.791Z,98114.97
2017-11-06T08:24:50.385Z,98110.09
2017-11-06T08:27:17.923Z,98112.60
2017-11-06T08:29:45.470Z,98111.26
2017-11-06T08:32:13.045Z,98107.05
2017-11-06T08:34:40.556Z,98119.78
2017-11-06T08:37:08.138Z,98120.97
2017-11-06T08:39:35.773Z,98120.18
2017-11-06T08:42:03.413Z,98111.70
2017-11-06T08:44:31.137Z,98119.45
2017-11-06T08:46:58.647Z,98115.39
2017-11-06T08:49:26.202Z,98119.85
2017-11-06T08:51:54.645Z,98120.52
2017-11-06T08:54:22.779Z,98125.96
2017-11-06T08:56:50.387Z,98123.25
2017-11-06T09:01:53.982Z,98130.75
2017-11-06T09:04:21.525Z,98135.74
2017-11-06T09:06:49.109Z,98139.47
2017-11-06T09:09:16.670Z,98134.48
2017-11-06T09:11:44.167Z,98142.25
2017-11-06T09:14:11.760Z,98150.00
2017-11-06T09:16:39.296Z,98145.48
2017-11-06T09:19:06.833Z,98148.80
2017-11-06T09:21:34.396Z,98142.90
2017-11-06T09:24:01.995Z,98153.06
2017-11-06T09:26:29.814Z,98148.87
2017-11-06T09:28:57.348Z,98159.23
2017-11-06T09:31:24.954Z,98165.11
2017-11-06T09:33:52.519Z,98170.81
2017-11-06T09:36:24.058Z,98178.77
2017-11-06T09:38:51.579Z,98165.63
2017-11-06T09:41:19.124Z,98161.52
2017-11-06T09:43:46.629Z,98173.65
2017-11-06T09:46:14.230Z,98169.66
2017-11-06T09:48:41.796Z,98179.14
2017-11-06T09:51:09.329Z,98178.13
2017-11-06T09:53:36.946Z,98179.81
2017-11-06T09:56:04.564Z,98186.08
2017-11-06T09:58:32.129Z,98182.61
2017-11-06T10:00:59.745Z,98181.89
2017-11-06T10:03:27.315Z,98184.23
2017-11-06T10:05:54.936Z,98196.95
2017-11-06T10:08:22.593Z,98165.63
2017-11-06T10:10:50.184Z,98186.91
2017-11-06T10:13:17.914Z,98188.73
2017-11-06T10:15:45.446Z,98183.78
2017-11-06T10:18:13.071Z,98189.23
2017-11-06T10:20:40.697Z,98188.56
2017-11-06T10:23:08.260Z,98194.04
2017-11-06T10:25:35.858Z,98194.11
2017-11-06T10:28:03.380Z,98198.52
2017-11-06T10:30:30.889Z,98192.38
2017-11-06T10:32:58.506Z,98193.37
2017-11-06T10:35:26.011Z,98186.09
2017-11-06T10:37:53.613Z,98189.72
2017-11-06T10:40:21.210Z,98194.98
2017-11-06T10:42:48.768Z,98192.82
2017-11-06T10:45:16.246Z,98192.94
2017-11-06T10:47:43.780Z,98190.05
2017-11-06T10:50:11.334Z,98188.58
2017-11-06T10:52:38.948Z,98196.55
2017-11-06T10:55:06.469Z,98201.33
2017-11-06T10:57:34.049Z,98185.97
2017-11-06T11:00:01.626Z,98195.45
2017-11-06T11:02:29.328Z,98202.61
2017-11-06T11:04:56.941Z,98210.51
2017-11-06T11:07:25.382Z,98197.88
2017-11-06T11:09:52.975Z,98195.87
2017-11-06T11:12:21.575Z,98199.47
2017-11-06T11:14:49.270Z,98198.47
2017-11-06T11:17:16.890Z,98198.30
2017-11-06T11:19:44.487Z,98198.12
2017-11-06T11:22:12.104Z,98201.99
2017-11-06T11:24:39.644Z,98200.28
2017-11-06T11:27:07.260Z,98201.84
2017-11-06T11:29:34.834Z,98195.30
2017-11-06T11:32:02.434Z,98200.02
2017-11-06T11:34:30.033Z,98196.34
2017-11-06T11:36:57.611Z,98198.84
2017-11-06T11:39:25.262Z,98191.12
2017-11-06T11:41:52.862Z,98194.11
2017-11-06T11:44:21.044Z,98192.56
2017-11-06T11:46:48.721Z,98198.50
2017-11-06T11:49:16.218Z,98192.66
2017-11-06T11:51:43.843Z,98187.42
2017-11-06T11:54:11.478Z,98191.37
2017-11-06T11:56:39.194Z,98192.47
2017-11-06T12:05:02.647Z,98184.03
2017-11-06T12:07:31.264Z,98191.02
2017-11-06T12:10:00.484Z,98181.95
2017-11-06T12:12:29.098Z,98181.94
2017-11-06T12:14:56.920Z,98186.05
2017-11-06T12:17:24.607Z,98189.11
2017-11-06T12:19:55.659Z,98190.70
2017-11-06T12:25:12.914Z,98182.57
2017-11-06T12:27:41.447Z,98183.74
2017-11-06T12:33:06.989Z,98188.17
2017-11-06T12:39:01.592Z,98190.23
2017-11-06T12:41:45.303Z,98196.14
2017-11-06T12:44:14.520Z,98197.66
2017-11-06T13:12:17.484Z,98190.30
2017-11-06T13:42:09.314Z,98203.83
2017-11-06T13:53:38.608Z,98214.78
2017-11-06T14:38:42.642Z,98234.30
2017-11-06T14:41:15.863Z,98228.30
2017-11-06T14:58:05.818Z,98233.18
2017-11-06T15:18:04.900Z,98256.27
2017-11-06T16:20:49.222Z,98265.66
2017-11-06T16:29:52.919Z,98303.22
2017-11-06T16:32:27.699Z,98303.63
2017-11-06T16:34:55.614Z,98305.43
2017-11-06T16:37:25.729Z,98315.97
2017-11-06T16:39:54.402Z,98314.52
2017-11-06T16:42:22.529Z,98314.70
2017-11-06T16:47:49.000Z,98321.76
2017-11-06T16:50:17.240Z,98326.61
2017-11-06T16:52:46.093Z,98315.92
2017-11-06T16:55:17.475Z,98320.39
2017-11-06T16:58:02.866Z,98322.55
2017-11-06T17:23:03.578Z,98350.91
2017-11-06T17:28:13.997Z,98345.30
2017-11-06T17:30:43.223Z,98349.13
2017-11-06T17:33:10.804Z,98345.05
2017-11-06T17:35:42.886Z,98340.84
2017-11-06T17:38:10.921Z,98337.98
2017-11-06T17:40:49.248Z,98342.98
2017-11-06T17:43:19.765Z,98344.45
2017-11-06T17:45:53.656Z,98344.56
2017-11-06T17:48:24.750Z,98349.89
2017-11-06T17:50:56.484Z,98349.25
2017-11-06T17:56:04.065Z,98344.56
2017-11-06T17:58:32.340Z,98342.33
2017-11-06T18:01:00.112Z,98343.30
2017-11-06T18:03:29.639Z,98343.30
2017-11-06T18:06:00.011Z,98339.28
2017-11-06T18:08:46.260Z,98345.56
2017-11-06T18:11:16.763Z,98343.73
2017-11-06T18:13:44.676Z,98342.30
2017-11-06T18:16:14.532Z,98347.48
2017-11-06T18:18:44.649Z,98349.09
2017-11-06T18:21:17.493Z,98352.56
2017-11-06T18:23:46.637Z,98351.99
2017-11-06T18:26:16.422Z,98347.09
2017-11-06T18:28:45.159Z,98347.08
2017-11-06T18:31:14.255Z,98355.95
2017-11-06T18:33:42.719Z,98357.85
2017-11-06T18:36:13.319Z,98349.59
2017-11-06T18:38:42.926Z,98356.02
2017-11-06T18:41:12.901Z,98355.67
2017-11-06T18:43:45.311Z,98351.75
2017-11-06T18:46:26.596Z,98344.61
2017-11-06T18:48:59.376Z,98357.05
2017-11-06T18:51:27.729Z,98353.41
2017-11-06T18:54:02.108Z,98351.10
2017-11-06T18:56:29.766Z,98359.91
2017-11-06T18:58:58.947Z,98356.33
2017-11-06T19:01:27.117Z,98362.14
2017-11-06T19:03:55.416Z,98356.80
2017-11-06T19:06:27.350Z,98354.89
2017-11-06T19:08:55.268Z,98352.50
2017-11-06T19:11:24.905Z,98356.89
2017-11-06T19:13:54.738Z,98342.45
2017-11-06T19:16:23.626Z,98352.91
2017-11-06T19:18:51.582Z,98353.68
2017-11-06T19:21:20.821Z,98352.72
2017-11-06T19:23:51.851Z,98351.09
2017-11-06T19:26:21.814Z,98351.23
2017-11-06T19:28:54.283Z,98351.25
2017-11-06T19:31:27.622Z,98354.30
2017-11-06T19:33:56.080Z,98351.09
2017-11-06T19:36:24.360Z,98342.14
2017-11-06T19:38:52.113Z,98343.70
2017-11-06T19:41:24.789Z,98343.82
2017-11-06T19:43:53.712Z,98350.38
2017-11-06T19:46:27.082Z,98343.66
2017-11-06T19:48:59.499Z,98343.32
2017-11-06T19:51:27.516Z,98339.06
2017-11-06T19:53:57.375Z,98342.80
2017-11-06T19:56:26.432Z,98340.80
2017-11-06T19:58:54.829Z,98345.97
2017-11-06T20:01:22.772Z,98344.52
2017-11-06T20:03:57.302Z,98346.91
2017-11-06T20:09:20.738Z,98351.50
2017-11-06T20:11:52.222Z,98348.73
2017-11-06T20:14:20.351Z,98348.05
2017-11-06T20:16:48.932Z,98345.86
2017-11-06T20:19:18.639Z,98345.47
2017-11-06T20:21:46.583Z,98341.58
2017-11-06T20:24:16.938Z,98342.96
2017-11-06T20:26:49.515Z,98342.98
2017-11-06T20:31:53.467Z,98344.75
2017-11-06T20:34:22.728Z,98349.73
2017-11-06T20:43:15.963Z,98346.75
2017-11-06T20:45:44.114Z,98347.23
2017-11-06T20:48:12.090Z,98345.40
2017-11-06T20:50:49.906Z,98347.81
2017-11-06T20:53:30.272Z,98342.69
2017-11-06T20:56:02.328Z,98351.08
2017-11-06T21:01:38.579Z,98343.67
2017-11-06T21:04:06.620Z,98338.31
2017-11-06T21:45:36.800Z,98333.69
2017-11-06T21:48:10.700Z,98329.70
2017-11-06T21:50:40.258Z,98337.73
2017-11-06T22:08:48.155Z,98309.52
2017-11-06T22:14:02.788Z,98299.79
2017-11-06T22:16:30.576Z,98299.66
2017-11-06T22:18:58.523Z,98296.05
